sensor_id;sensor_type;location;lat;lon;timestamp;P1;durP1;ratioP1;P2;durP2;ratioP2
13764;SDS011;6953;48.810;9.204;2024-02-04T00:01:58;0.50;;;0.50;;
13764;SDS011;6953;48.810;9.204;2024-02-04T00:04:24;0.40;;;0.40;;
13764;SDS011;6953;48.810;9.204;2024-02-04T00:06:49;0.50;;;0.50;;
13764;SDS011;6953;48.810;9.204;2024-02-04T00:09:14;0.40;;;0.40;;
13764;SDS011;6953;48.810;9.204;2024-02-04T00:11:39;0.38;;;0.38;;
13764;SDS011;6953;48.810;9.204;2024-02-04T00:14:05;0.40;;;0.40;;
13764;SDS011;6953;48.810;9.204;2024-02-04T00:16:30;0.30;;;0.30;;
13764;SDS011;6953;48.810;9.204;2024-02-04T00:18:55;0.30;;;0.30;;
13764;SDS011;6953;48.810;9.204;2024-02-04T00:21:21;0.43;;;0.43;;
13764;SDS011;6953;48.810;9.204;2024-02-04T00:23:46;0.50;;;0.50;;
13764;SDS011;6953;48.810;9.204;2024-02-04T00:26:11;0.40;;;0.40;;
13764;SDS011;6953;48.810;9.204;2024-02-04T00:28:37;0.50;;;0.50;;
13764;SDS011;6953;48.810;9.204;2024-02-04T00:31:02;0.40;;;0.40;;
13764;SDS011;6953;48.810;9.204;2024-02-04T00:33:27;0.50;;;0.50;;
13764;SDS011;6953;48.810;9.204;2024-02-04T00:35:53;0.40;;;0.40;;
13764;SDS011;6953;48.810;9.204;2024-02-04T00:38:18;0.50;;;0.50;;
13764;SDS011;6953;48.810;9.204;2024-02-04T00:40:44;0.30;;;0.30;;
13764;SDS011;6953;48.810;9.204;2024-02-04T00:43:09;0.43;;;0.43;;
13764;SDS011;6953;48.810;9.204;2024-02-04T00:45:35;0.40;;;0.40;;
13764;SDS011;6953;48.810;9.204;2024-02-04T00:48:00;0.47;;;0.47;;
13764;SDS011;6953;48.810;9.204;2024-02-04T00:50:26;0.40;;;0.40;;
13764;SDS011;6953;48.810;9.204;2024-02-04T00:52:51;0.40;;;0.40;;
13764;SDS011;6953;48.810;9.204;2024-02-04T00:55:18;0.50;;;0.50;;
13764;SDS011;6953;48.810;9.204;2024-02-04T00:57:44;0.40;;;0.40;;
13764;SDS011;6953;48.810;9.204;2024-02-04T01:00:09;0.32;;;0.32;;
13764;SDS011;6953;48.810;9.204;2024-02-04T01:02:35;0.50;;;0.50;;
13764;SDS011;6953;48.810;9.204;2024-02-04T01:05:00;0.50;;;0.50;;
13764;SDS011;6953;48.810;9.204;2024-02-04T01:07:26;0.40;;;0.40;;
13764;SDS011;6953;48.810;9.204;2024-02-04T01:09:51;0.50;;;0.50;;
13764;SDS011;6953;48.810;9.204;2024-02-04T01:12:16;0.40;;;0.40;;
13764;SDS011;6953;48.810;9.204;2024-02-04T01:14:42;0.40;;;0.40;;
13764;SDS011;6953;48.810;9.204;2024-02-04T01:17:07;0.50;;;0.50;;
13764;SDS011;6953;48.810;9.204;2024-02-04T01:19:33;0.50;;;0.50;;
13764;SDS011;6953;48.810;9.204;2024-02-04T01:21:58;0.50;;;0.50;;
13764;SDS011;6953;48.810;9.204;2024-02-04T01:24:24;0.60;;;0.60;;
13764;SDS011;6953;48.810;9.204;2024-02-04T01:26:50;0.40;;;0.40;;
13764;SDS011;6953;48.810;9.204;2024-02-04T01:29:15;0.50;;;0.50;;
13764;SDS011;6953;48.810;9.204;2024-02-04T01:31:40;0.40;;;0.40;;
13764;SDS011;6953;48.810;9.204;2024-02-04T01:34:06;0.47;;;0.47;;
13764;SDS011;6953;48.810;9.204;2024-02-04T01:36:31;0.40;;;0.40;;
13764;SDS011;6953;48.810;9.204;2024-02-04T01:38:57;0.50;;;0.50;;
13764;SDS011;6953;48.810;9.204;2024-02-04T01:41:22;0.50;;;0.50;;
13764;SDS011;6953;48.810;9.204;2024-02-04T01:43:50;0.50;;;0.50;;
13764;SDS011;6953;48.810;9.204;2024-02-04T01:46:16;0.38;;;0.38;;
13764;SDS011;6953;48.810;9.204;2024-02-04T01:48:42;0.47;;;0.47;;
13764;SDS011;6953;48.810;9.204;2024-02-04T01:51:08;0.50;;;0.50;;
13764;SDS011;6953;48.810;9.204;2024-02-04T01:53:34;0.32;;;0.32;;
13764;SDS011;6953;48.810;9.204;2024-02-04T01:56:01;0.40;;;0.40;;
13764;SDS011;6953;48.810;9.204;2024-02-04T01:58:27;0.50;;;0.50;;
13764;SDS011;6953;48.810;9.204;2024-02-04T02:00:52;0.43;;;0.43;;
13764;SDS011;6953;48.810;9.204;2024-02-04T02:03:18;0.40;;;0.40;;
13764;SDS011;6953;48.810;9.204;2024-02-04T02:05:44;0.50;;;0.50;;
13764;SDS011;6953;48.810;9.204;2024-02-04T02:08:11;0.40;;;0.40;;
13764;SDS011;6953;48.810;9.204;2024-02-04T02:10:37;0.40;;;0.40;;
13764;SDS011;6953;48.810;9.204;2024-02-04T02:13:06;0.40;;;0.40;;
13764;SDS011;6953;48.810;9.204;2024-02-04T02:15:38;0.40;;;0.40;;
13764;SDS011;6953;48.810;9.204;2024-02-04T02:18:10;0.43;;;0.43;;
13764;SDS011;6953;48.810;9.204;2024-02-04T02:23:30;0.60;;;0.60;;
13764;SDS011;6953;48.810;9.204;2024-02-04T02:25:56;0.50;;;0.50;;
13764;SDS011;6953;48.810;9.204;2024-02-04T02:28:23;0.50;;;0.50;;
13764;SDS011;6953;48.810;9.204;2024-02-04T02:30:48;0.40;;;0.40;;
13764;SDS011;6953;48.810;9.204;2024-02-04T02:33:13;0.40;;;0.40;;
13764;SDS011;6953;48.810;9.204;2024-02-04T02:35:39;0.47;;;0.47;;
13764;SDS011;6953;48.810;9.204;2024-02-04T02:40:47;0.40;;;0.40;;
13764;SDS011;6953;48.810;9.204;2024-02-04T02:43:16;0.45;;;0.45;;
13764;SDS011;6953;48.810;9.204;2024-02-04T02:45:43;0.50;;;0.50;;
13764;SDS011;6953;48.810;9.204;2024-02-04T02:48:10;0.50;;;0.50;;
13764;SDS011;6953;48.810;9.204;2024-02-04T02:50:36;0.40;;;0.40;;
13764;SDS011;6953;48.810;9.204;2024-02-04T02:53:02;0.43;;;0.43;;
13764;SDS011;6953;48.810;9.204;2024-02-04T02:55:28;0.40;;;0.40;;
13764;SDS011;6953;48.810;9.204;2024-02-04T02:57:53;0.50;;;0.50;;
13764;SDS011;6953;48.810;9.204;2024-02-04T03:00:18;0.50;;;0.50;;
13764;SDS011;6953;48.810;9.204;2024-02-04T03:02:44;0.40;;;0.40;;
13764;SDS011;6953;48.810;9.204;2024-02-04T03:05:10;0.43;;;0.43;;
13764;SDS011;6953;48.810;9.204;2024-02-04T03:07:36;0.40;;;0.40;;
13764;SDS011;6953;48.810;9.204;2024-02-04T03:10:02;0.50;;;0.50;;
13764;SDS011;6953;48.810;9.204;2024-02-04T03:12:27;0.40;;;0.40;;
13764;SDS011;6953;48.810;9.204;2024-02-04T03:14:53;0.47;;;0.47;;
13764;SDS011;6953;48.810;9.204;2024-02-04T03:17:18;0.57;;;0.57;;
13764;SDS011;6953;48.810;9.204;2024-02-04T03:19:46;0.50;;;0.50;;
13764;SDS011;6953;48.810;9.204;2024-02-04T03:22:12;0.57;;;0.57;;
13764;SDS011;6953;48.810;9.204;2024-02-04T03:24:37;0.40;;;0.40;;
13764;SDS011;6953;48.810;9.204;2024-02-04T03:27:03;0.40;;;0.40;;
13764;SDS011;6953;48.810;9.204;2024-02-04T03:29:28;0.40;;;0.40;;
13764;SDS011;6953;48.810;9.204;2024-02-04T03:31:55;0.40;;;0.40;;
13764;SDS011;6953;48.810;9.204;2024-02-04T03:34:20;0.50;;;0.50;;
13764;SDS011;6953;48.810;9.204;2024-02-04T03:36:46;0.52;;;0.52;;
13764;SDS011;6953;48.810;9.204;2024-02-04T03:39:11;0.43;;;0.43;;
13764;SDS011;6953;48.810;9.204;2024-02-04T03:41:36;0.40;;;0.40;;
13764;SDS011;6953;48.810;9.204;2024-02-04T03:44:02;0.40;;;0.40;;
13764;SDS011;6953;48.810;9.204;2024-02-04T03:46:27;0.50;;;0.50;;
13764;SDS011;6953;48.810;9.204;2024-02-04T03:48:52;0.60;;;0.60;;
13764;SDS011;6953;48.810;9.204;2024-02-04T03:51:18;0.50;;;0.50;;
13764;SDS011;6953;48.810;9.204;2024-02-04T03:53:44;0.50;;;0.50;;
13764;SDS011;6953;48.810;9.204;2024-02-04T03:56:10;0.60;;;0.60;;
13764;SDS011;6953;48.810;9.204;2024-02-04T03:58:35;0.50;;;0.50;;
13764;SDS011;6953;48.810;9.204;2024-02-04T04:01:00;0.50;;;0.50;;
13764;SDS011;6953;48.810;9.204;2024-02-04T04:03:26;0.40;;;0.40;;
13764;SDS011;6953;48.810;9.204;2024-02-04T04:05:52;0.40;;;0.40;;
13764;SDS011;6953;48.810;9.204;2024-02-04T04:08:18;0.50;;;0.50;;
13764;SDS011;6953;48.810;9.204;2024-02-04T04:10:43;0.60;;;0.60;;
13764;SDS011;6953;48.810;9.204;2024-02-04T04:13:09;0.50;;;0.50;;
13764;SDS011;6953;48.810;9.204;2024-02-04T04:15:34;0.40;;;0.40;;
13764;SDS011;6953;48.810;9.204;2024-02-04T04:17:59;0.50;;;0.50;;
13764;SDS011;6953;48.810;9.204;2024-02-04T04:20:25;0.50;;;0.50;;
13764;SDS011;6953;48.810;9.204;2024-02-04T04:22:50;0.40;;;0.40;;
13764;SDS011;6953;48.810;9.204;2024-02-04T04:25:15;0.50;;;0.50;;
13764;SDS011;6953;48.810;9.204;2024-02-04T04:27:42;0.50;;;0.50;;
13764;SDS011;6953;48.810;9.204;2024-02-04T04:30:07;0.45;;;0.45;;
13764;SDS011;6953;48.810;9.204;2024-02-04T04:32:33;0.60;;;0.60;;
13764;SDS011;6953;48.810;9.204;2024-02-04T04:34:59;0.60;;;0.60;;
13764;SDS011;6953;48.810;9.204;2024-02-04T04:37:24;0.45;;;0.45;;
13764;SDS011;6953;48.810;9.204;2024-02-04T04:39:49;0.32;;;0.32;;
13764;SDS011;6953;48.810;9.204;2024-02-04T04:42:15;0.50;;;0.50;;
13764;SDS011;6953;48.810;9.204;2024-02-04T04:44:40;0.40;;;0.40;;
13764;SDS011;6953;48.810;9.204;2024-02-04T04:47:05;0.50;;;0.50;;
13764;SDS011;6953;48.810;9.204;2024-02-04T04:49:31;0.60;;;0.60;;
13764;SDS011;6953;48.810;9.204;2024-02-04T04:51:56;0.40;;;0.40;;
13764;SDS011;6953;48.810;9.204;2024-02-04T04:54:21;0.30;;;0.30;;
13764;SDS011;6953;48.810;9.204;2024-02-04T04:56:47;0.40;;;0.40;;
13764;SDS011;6953;48.810;9.204;2024-02-04T04:59:12;0.47;;;0.47;;
13764;SDS011;6953;48.810;9.204;2024-02-04T05:01:37;0.30;;;0.30;;
13764;SDS011;6953;48.810;9.204;2024-02-04T05:04:10;0.47;;;0.47;;
13764;SDS011;6953;48.810;9.204;2024-02-04T05:06:35;0.50;;;0.50;;
13764;SDS011;6953;48.810;9.204;2024-02-04T05:09:00;0.52;;;0.52;;
13764;SDS011;6953;48.810;9.204;2024-02-04T05:11:26;0.45;;;0.45;;
13764;SDS011;6953;48.810;9.204;2024-02-04T05:13:51;0.40;;;0.40;;
13764;SDS011;6953;48.810;9.204;2024-02-04T05:16:16;0.60;;;0.60;;
13764;SDS011;6953;48.810;9.204;2024-02-04T05:18:42;0.60;;;0.60;;
13764;SDS011;6953;48.810;9.204;2024-02-04T05:21:07;0.50;;;0.50;;
13764;SDS011;6953;48.810;9.204;2024-02-04T05:23:32;0.40;;;0.40;;
13764;SDS011;6953;48.810;9.204;2024-02-04T05:25:57;0.50;;;0.50;;
13764;SDS011;6953;48.810;9.204;2024-02-04T05:28:23;0.50;;;0.50;;
13764;SDS011;6953;48.810;9.204;2024-02-04T05:30:48;0.55;;;0.55;;
13764;SDS011;6953;48.810;9.204;2024-02-04T05:33:13;0.43;;;0.43;;
13764;SDS011;6953;48.810;9.204;2024-02-04T05:35:39;0.50;;;0.50;;
13764;SDS011;6953;48.810;9.204;2024-02-04T05:38:07;0.50;;;0.50;;
13764;SDS011;6953;48.810;9.204;2024-02-04T05:40:33;0.50;;;0.50;;
13764;SDS011;6953;48.810;9.204;2024-02-04T05:42:58;0.50;;;0.50;;
13764;SDS011;6953;48.810;9.204;2024-02-04T05:45:23;0.50;;;0.50;;
13764;SDS011;6953;48.810;9.204;2024-02-04T05:47:49;0.40;;;0.40;;
13764;SDS011;6953;48.810;9.204;2024-02-04T05:50:14;0.45;;;0.45;;
13764;SDS011;6953;48.810;9.204;2024-02-04T05:52:39;0.40;;;0.40;;
13764;SDS011;6953;48.810;9.204;2024-02-04T05:55:05;0.55;;;0.55;;
13764;SDS011;6953;48.810;9.204;2024-02-04T05:57:30;0.47;;;0.47;;
13764;SDS011;6953;48.810;9.204;2024-02-04T05:59:56;0.40;;;0.40;;
13764;SDS011;6953;48.810;9.204;2024-02-04T06:02:21;0.50;;;0.50;;
13764;SDS011;6953;48.810;9.204;2024-02-04T06:04:46;0.60;;;0.60;;
13764;SDS011;6953;48.810;9.204;2024-02-04T06:07:13;0.60;;;0.60;;
13764;SDS011;6953;48.810;9.204;2024-02-04T06:09:38;0.50;;;0.50;;
13764;SDS011;6953;48.810;9.204;2024-02-04T06:12:04;0.57;;;0.57;;
13764;SDS011;6953;48.810;9.204;2024-02-04T06:14:32;0.50;;;0.50;;
13764;SDS011;6953;48.810;9.204;2024-02-04T06:16:59;0.50;;;0.50;;
13764;SDS011;6953;48.810;9.204;2024-02-04T06:19:24;0.40;;;0.40;;
13764;SDS011;6953;48.810;9.204;2024-02-04T06:21:50;0.50;;;0.50;;
13764;SDS011;6953;48.810;9.204;2024-02-04T06:24:15;0.40;;;0.40;;
13764;SDS011;6953;48.810;9.204;2024-02-04T06:26:40;0.45;;;0.45;;
13764;SDS011;6953;48.810;9.204;2024-02-04T06:29:06;0.40;;;0.40;;
13764;SDS011;6953;48.810;9.204;2024-02-04T06:31:32;0.40;;;0.40;;
13764;SDS011;6953;48.810;9.204;2024-02-04T06:33:57;0.40;;;0.40;;
13764;SDS011;6953;48.810;9.204;2024-02-04T06:36:22;0.40;;;0.40;;
13764;SDS011;6953;48.810;9.204;2024-02-04T06:38:48;0.60;;;0.60;;
13764;SDS011;6953;48.810;9.204;2024-02-04T06:41:13;0.40;;;0.40;;
13764;SDS011;6953;48.810;9.204;2024-02-04T06:43:38;0.50;;;0.50;;
13764;SDS011;6953;48.810;9.204;2024-02-04T06:46:04;0.50;;;0.50;;
13764;SDS011;6953;48.810;9.204;2024-02-04T06:48:29;0.60;;;0.60;;
13764;SDS011;6953;48.810;9.204;2024-02-04T06:50:54;0.50;;;0.50;;
13764;SDS011;6953;48.810;9.204;2024-02-04T06:53:20;0.50;;;0.50;;
13764;SDS011;6953;48.810;9.204;2024-02-04T06:55:45;0.60;;;0.60;;
13764;SDS011;6953;48.810;9.204;2024-02-04T06:58:10;0.40;;;0.40;;
13764;SDS011;6953;48.810;9.204;2024-02-04T07:00:35;0.50;;;0.50;;
13764;SDS011;6953;48.810;9.204;2024-02-04T07:03:01;0.60;;;0.60;;
13764;SDS011;6953;48.810;9.204;2024-02-04T07:05:26;0.50;;;0.50;;
13764;SDS011;6953;48.810;9.204;2024-02-04T07:07:51;0.52;;;0.52;;
13764;SDS011;6953;48.810;9.204;2024-02-04T07:10:17;0.52;;;0.52;;
13764;SDS011;6953;48.810;9.204;2024-02-04T07:12:43;0.55;;;0.55;;
13764;SDS011;6953;48.810;9.204;2024-02-04T07:15:09;0.50;;;0.50;;
13764;SDS011;6953;48.810;9.204;2024-02-04T07:17:34;0.50;;;0.50;;
13764;SDS011;6953;48.810;9.204;2024-02-04T07:20:01;0.50;;;0.50;;
13764;SDS011;6953;48.810;9.204;2024-02-04T07:22:27;0.40;;;0.40;;
13764;SDS011;6953;48.810;9.204;2024-02-04T07:24:53;0.50;;;0.50;;
13764;SDS011;6953;48.810;9.204;2024-02-04T07:27:18;0.50;;;0.50;;
13764;SDS011;6953;48.810;9.204;2024-02-04T07:29:43;0.40;;;0.40;;
13764;SDS011;6953;48.810;9.204;2024-02-04T07:32:08;0.50;;;0.50;;
13764;SDS011;6953;48.810;9.204;2024-02-04T07:34:34;0.50;;;0.50;;
13764;SDS011;6953;48.810;9.204;2024-02-04T07:36:59;0.50;;;0.50;;
13764;SDS011;6953;48.810;9.204;2024-02-04T07:39:24;0.52;;;0.52;;
13764;SDS011;6953;48.810;9.204;2024-02-04T07:41:50;0.60;;;0.60;;
13764;SDS011;6953;48.810;9.204;2024-02-04T07:44:15;0.40;;;0.40;;
13764;SDS011;6953;48.810;9.204;2024-02-04T07:46:40;0.50;;;0.50;;
13764;SDS011;6953;48.810;9.204;2024-02-04T07:49:06;0.40;;;0.40;;
13764;SDS011;6953;48.810;9.204;2024-02-04T07:51:31;0.32;;;0.32;;
13764;SDS011;6953;48.810;9.204;2024-02-04T07:53:57;0.40;;;0.40;;
13764;SDS011;6953;48.810;9.204;2024-02-04T07:56:22;0.50;;;0.50;;
13764;SDS011;6953;48.810;9.204;2024-02-04T07:58:47;0.40;;;0.40;;
13764;SDS011;6953;48.810;9.204;2024-02-04T08:01:12;0.40;;;0.40;;
13764;SDS011;6953;48.810;9.204;2024-02-04T08:03:38;0.50;;;0.50;;
13764;SDS011;6953;48.810;9.204;2024-02-04T08:06:03;0.57;;;0.57;;
13764;SDS011;6953;48.810;9.204;2024-02-04T08:08:29;0.50;;;0.50;;
13764;SDS011;6953;48.810;9.204;2024-02-04T08:10:54;0.50;;;0.50;;
13764;SDS011;6953;48.810;9.204;2024-02-04T08:13:20;0.50;;;0.50;;
13764;SDS011;6953;48.810;9.204;2024-02-04T08:15:45;0.50;;;0.50;;
13764;SDS011;6953;48.810;9.204;2024-02-04T08:18:10;0.50;;;0.50;;
13764;SDS011;6953;48.810;9.204;2024-02-04T08:20:36;0.50;;;0.50;;
13764;SDS011;6953;48.810;9.204;2024-02-04T08:23:01;0.50;;;0.50;;
13764;SDS011;6953;48.810;9.204;2024-02-04T08:25:26;0.50;;;0.50;;
13764;SDS011;6953;48.810;9.204;2024-02-04T08:27:52;0.55;;;0.55;;
13764;SDS011;6953;48.810;9.204;2024-02-04T08:30:17;0.40;;;0.40;;
13764;SDS011;6953;48.810;9.204;2024-02-04T08:32:44;0.50;;;0.50;;
13764;SDS011;6953;48.810;9.204;2024-02-04T08:35:10;0.38;;;0.38;;
13764;SDS011;6953;48.810;9.204;2024-02-04T08:37:35;0.40;;;0.40;;
13764;SDS011;6953;48.810;9.204;2024-02-04T08:40:02;0.50;;;0.50;;
13764;SDS011;6953;48.810;9.204;2024-02-04T08:42:29;0.43;;;0.43;;
13764;SDS011;6953;48.810;9.204;2024-02-04T08:44:54;0.40;;;0.40;;
13764;SDS011;6953;48.810;9.204;2024-02-04T08:47:19;0.40;;;0.40;;
13764;SDS011;6953;48.810;9.204;2024-02-04T08:49:45;0.50;;;0.50;;
13764;SDS011;6953;48.810;9.204;2024-02-04T08:52:10;0.50;;;0.50;;
13764;SDS011;6953;48.810;9.204;2024-02-04T08:54:35;0.50;;;0.50;;
13764;SDS011;6953;48.810;9.204;2024-02-04T08:57:00;0.40;;;0.40;;
13764;SDS011;6953;48.810;9.204;2024-02-04T08:59:26;0.40;;;0.40;;
13764;SDS011;6953;48.810;9.204;2024-02-04T09:01:51;0.38;;;0.38;;
13764;SDS011;6953;48.810;9.204;2024-02-04T09:04:16;0.50;;;0.50;;
13764;SDS011;6953;48.810;9.204;2024-02-04T09:06:42;0.40;;;0.40;;
13764;SDS011;6953;48.810;9.204;2024-02-04T09:09:07;0.50;;;0.50;;
13764;SDS011;6953;48.810;9.204;2024-02-04T09:11:34;0.40;;;0.40;;
13764;SDS011;6953;48.810;9.204;2024-02-04T09:13:59;0.50;;;0.50;;
13764;SDS011;6953;48.810;9.204;2024-02-04T09:16:25;0.40;;;0.40;;
13764;SDS011;6953;48.810;9.204;2024-02-04T09:18:50;0.50;;;0.50;;
13764;SDS011;6953;48.810;9.204;2024-02-04T09:21:15;0.40;;;0.40;;
13764;SDS011;6953;48.810;9.204;2024-02-04T09:23:41;0.40;;;0.40;;
13764;SDS011;6953;48.810;9.204;2024-02-04T09:26:06;0.50;;;0.50;;
13764;SDS011;6953;48.810;9.204;2024-02-04T09:28:31;0.43;;;0.43;;
13764;SDS011;6953;48.810;9.204;2024-02-04T09:30:57;0.40;;;0.40;;
13764;SDS011;6953;48.810;9.204;2024-02-04T09:33:22;0.32;;;0.32;;
13764;SDS011;6953;48.810;9.204;2024-02-04T09:35:47;0.50;;;0.50;;
13764;SDS011;6953;48.810;9.204;2024-02-04T09:38:14;0.40;;;0.40;;
13764;SDS011;6953;48.810;9.204;2024-02-04T09:40:40;0.40;;;0.40;;
13764;SDS011;6953;48.810;9.204;2024-02-04T09:43:05;0.40;;;0.40;;
13764;SDS011;6953;48.810;9.204;2024-02-04T09:45:31;0.30;;;0.30;;
13764;SDS011;6953;48.810;9.204;2024-02-04T09:47:57;0.40;;;0.40;;
13764;SDS011;6953;48.810;9.204;2024-02-04T09:50:23;0.30;;;0.30;;
13764;SDS011;6953;48.810;9.204;2024-02-04T09:52:49;0.38;;;0.38;;
13764;SDS011;6953;48.810;9.204;2024-02-04T09:55:16;0.30;;;0.30;;
13764;SDS011;6953;48.810;9.204;2024-02-04T09:57:44;0.30;;;0.30;;
13764;SDS011;6953;48.810;9.204;2024-02-04T10:00:10;0.22;;;0.22;;
13764;SDS011;6953;48.810;9.204;2024-02-04T10:02:38;0.30;;;0.30;;
13764;SDS011;6953;48.810;9.204;2024-02-04T10:05:03;0.40;;;0.40;;
13764;SDS011;6953;48.810;9.204;2024-02-04T10:07:29;0.30;;;0.30;;
13764;SDS011;6953;48.810;9.204;2024-02-04T10:09:54;0.30;;;0.30;;
13764;SDS011;6953;48.810;9.204;2024-02-04T10:12:20;0.28;;;0.28;;
13764;SDS011;6953;48.810;9.204;2024-02-04T10:14:46;0.30;;;0.30;;
13764;SDS011;6953;48.810;9.204;2024-02-04T10:17:13;0.30;;;0.30;;
13764;SDS011;6953;48.810;9.204;2024-02-04T10:19:40;0.20;;;0.20;;
13764;SDS011;6953;48.810;9.204;2024-02-04T10:22:05;0.17;;;0.17;;
13764;SDS011;6953;48.810;9.204;2024-02-04T10:24:30;0.20;;;0.20;;
13764;SDS011;6953;48.810;9.204;2024-02-04T10:26:56;0.30;;;0.30;;
13764;SDS011;6953;48.810;9.204;2024-02-04T10:29:22;0.20;;;0.20;;
13764;SDS011;6953;48.810;9.204;2024-02-04T10:31:48;0.20;;;0.20;;
13764;SDS011;6953;48.810;9.204;2024-02-04T10:34:13;0.30;;;0.30;;
13764;SDS011;6953;48.810;9.204;2024-02-04T10:36:39;0.22;;;0.22;;
13764;SDS011;6953;48.810;9.204;2024-02-04T10:39:04;0.38;;;0.38;;
13764;SDS011;6953;48.810;9.204;2024-02-04T10:41:29;0.30;;;0.30;;
13764;SDS011;6953;48.810;9.204;2024-02-04T10:43:56;0.20;;;0.20;;
13764;SDS011;6953;48.810;9.204;2024-02-04T10:46:23;0.20;;;0.20;;
13764;SDS011;6953;48.810;9.204;2024-02-04T10:48:55;0.30;;;0.30;;
13764;SDS011;6953;48.810;9.204;2024-02-04T10:51:25;0.25;;;0.25;;
13764;SDS011;6953;48.810;9.204;2024-02-04T10:53:53;0.28;;;0.28;;
13764;SDS011;6953;48.810;9.204;2024-02-04T10:59:09;0.30;;;0.30;;
13764;SDS011;6953;48.810;9.204;2024-02-04T11:01:36;0.20;;;0.20;;
13764;SDS011;6953;48.810;9.204;2024-02-04T11:04:03;0.20;;;0.20;;
13764;SDS011;6953;48.810;9.204;2024-02-04T11:06:30;0.20;;;0.20;;
13764;SDS011;6953;48.810;9.204;2024-02-04T11:08:56;0.28;;;0.28;;
13764;SDS011;6953;48.810;9.204;2024-02-04T11:11:23;0.30;;;0.30;;
13764;SDS011;6953;48.810;9.204;2024-02-04T11:13:52;0.20;;;0.20;;
13764;SDS011;6953;48.810;9.204;2024-02-04T11:24:37;0.20;;;0.20;;
13764;SDS011;6953;48.810;9.204;2024-02-04T11:27:14;0.30;;;0.30;;
13764;SDS011;6953;48.810;9.204;2024-02-04T11:29:40;0.25;;;0.25;;
13764;SDS011;6953;48.810;9.204;2024-02-04T11:32:06;0.40;;;0.40;;
13764;SDS011;6953;48.810;9.204;2024-02-04T11:34:31;0.10;;;0.10;;
13764;SDS011;6953;48.810;9.204;2024-02-04T11:36:58;0.35;;;0.35;;
13764;SDS011;6953;48.810;9.204;2024-02-04T11:39:23;0.45;;;0.45;;
13764;SDS011;6953;48.810;9.204;2024-02-04T11:41:50;0.20;;;0.20;;
13764;SDS011;6953;48.810;9.204;2024-02-04T11:44:22;0.30;;;0.30;;
13764;SDS011;6953;48.810;9.204;2024-02-04T11:46:49;0.30;;;0.30;;
13764;SDS011;6953;48.810;9.204;2024-02-04T11:49:18;0.22;;;0.22;;
13764;SDS011;6953;48.810;9.204;2024-02-04T11:51:47;0.10;;;0.10;;
13764;SDS011;6953;48.810;9.204;2024-02-04T11:54:15;0.20;;;0.20;;
13764;SDS011;6953;48.810;9.204;2024-02-04T11:56:41;0.20;;;0.20;;
13764;SDS011;6953;48.810;9.204;2024-02-04T11:59:08;0.30;;;0.30;;
13764;SDS011;6953;48.810;9.204;2024-02-04T12:01:34;0.20;;;0.20;;
13764;SDS011;6953;48.810;9.204;2024-02-04T12:04:13;0.20;;;0.20;;
13764;SDS011;6953;48.810;9.204;2024-02-04T12:06:41;0.20;;;0.20;;
13764;SDS011;6953;48.810;9.204;2024-02-04T12:09:10;0.20;;;0.20;;
13764;SDS011;6953;48.810;9.204;2024-02-04T12:11:36;0.30;;;0.30;;
13764;SDS011;6953;48.810;9.204;2024-02-04T12:14:03;0.20;;;0.20;;
13764;SDS011;6953;48.810;9.204;2024-02-04T12:16:32;0.30;;;0.30;;
13764;SDS011;6953;48.810;9.204;2024-02-04T12:18:59;0.30;;;0.30;;
13764;SDS011;6953;48.810;9.204;2024-02-04T12:21:25;0.30;;;0.30;;
13764;SDS011;6953;48.810;9.204;2024-02-04T12:23:51;0.40;;;0.40;;
13764;SDS011;6953;48.810;9.204;2024-02-04T12:26:16;0.30;;;0.30;;
13764;SDS011;6953;48.810;9.204;2024-02-04T12:28:42;0.50;;;0.50;;
13764;SDS011;6953;48.810;9.204;2024-02-04T12:31:08;0.47;;;0.47;;
13764;SDS011;6953;48.810;9.204;2024-02-04T12:33:42;0.40;;;0.40;;
13764;SDS011;6953;48.810;9.204;2024-02-04T12:36:07;0.32;;;0.32;;
13764;SDS011;6953;48.810;9.204;2024-02-04T12:38:33;0.30;;;0.30;;
13764;SDS011;6953;48.810;9.204;2024-02-04T12:41:03;0.40;;;0.40;;
13764;SDS011;6953;48.810;9.204;2024-02-04T12:43:28;0.30;;;0.30;;
13764;SDS011;6953;48.810;9.204;2024-02-04T12:45:56;0.30;;;0.30;;
13764;SDS011;6953;48.810;9.204;2024-02-04T12:48:22;0.30;;;0.30;;
13764;SDS011;6953;48.810;9.204;2024-02-04T12:50:50;0.30;;;0.30;;
13764;SDS011;6953;48.810;9.204;2024-02-04T12:53:16;0.30;;;0.30;;
13764;SDS011;6953;48.810;9.204;2024-02-04T12:55:44;0.30;;;0.30;;
13764;SDS011;6953;48.810;9.204;2024-02-04T12:58:10;0.30;;;0.30;;
13764;SDS011;6953;48.810;9.204;2024-02-04T13:00:42;0.20;;;0.20;;
13764;SDS011;6953;48.810;9.204;2024-02-04T13:03:08;0.30;;;0.30;;
13764;SDS011;6953;48.810;9.204;2024-02-04T13:05:33;0.20;;;0.20;;
13764;SDS011;6953;48.810;9.204;2024-02-04T13:08:00;0.20;;;0.20;;
13764;SDS011;6953;48.810;9.204;2024-02-04T13:10:31;0.10;;;0.10;;
13764;SDS011;6953;48.810;9.204;2024-02-04T13:13:02;0.17;;;0.17;;
13764;SDS011;6953;48.810;9.204;2024-02-04T13:15:33;0.20;;;0.20;;
13764;SDS011;6953;48.810;9.204;2024-02-04T13:18:01;0.20;;;0.20;;
13764;SDS011;6953;48.810;9.204;2024-02-04T13:20:27;0.20;;;0.20;;
13764;SDS011;6953;48.810;9.204;2024-02-04T13:22:52;0.20;;;0.20;;
13764;SDS011;6953;48.810;9.204;2024-02-04T13:25:19;0.30;;;0.30;;
13764;SDS011;6953;48.810;9.204;2024-02-04T13:27:45;0.30;;;0.30;;
13764;SDS011;6953;48.810;9.204;2024-02-04T13:30:11;0.30;;;0.30;;
13764;SDS011;6953;48.810;9.204;2024-02-04T13:32:40;0.20;;;0.20;;
13764;SDS011;6953;48.810;9.204;2024-02-04T13:35:07;0.30;;;0.30;;
13764;SDS011;6953;48.810;9.204;2024-02-04T13:37:34;0.30;;;0.30;;
13764;SDS011;6953;48.810;9.204;2024-02-04T13:40:15;0.20;;;0.20;;
13764;SDS011;6953;48.810;9.204;2024-02-04T13:42:42;0.30;;;0.30;;
13764;SDS011;6953;48.810;9.204;2024-02-04T13:45:07;0.40;;;0.40;;
13764;SDS011;6953;48.810;9.204;2024-02-04T13:47:33;0.30;;;0.30;;
13764;SDS011;6953;48.810;9.204;2024-02-04T13:49:59;0.22;;;0.22;;
13764;SDS011;6953;48.810;9.204;2024-02-04T13:52:25;0.20;;;0.20;;
13764;SDS011;6953;48.810;9.204;2024-02-04T13:54:50;0.30;;;0.30;;
13764;SDS011;6953;48.810;9.204;2024-02-04T13:57:15;0.22;;;0.22;;
13764;SDS011;6953;48.810;9.204;2024-02-04T13:59:41;0.30;;;0.30;;
13764;SDS011;6953;48.810;9.204;2024-02-04T14:02:07;0.30;;;0.30;;
13764;SDS011;6953;48.810;9.204;2024-02-04T14:04:34;0.30;;;0.30;;
13764;SDS011;6953;48.810;9.204;2024-02-04T14:06:59;0.20;;;0.20;;
13764;SDS011;6953;48.810;9.204;2024-02-04T14:09:25;0.30;;;0.30;;
13764;SDS011;6953;48.810;9.204;2024-02-04T14:11:51;0.40;;;0.40;;
13764;SDS011;6953;48.810;9.204;2024-02-04T14:14:16;0.30;;;0.30;;
13764;SDS011;6953;48.810;9.204;2024-02-04T14:16:42;0.30;;;0.30;;
13764;SDS011;6953;48.810;9.204;2024-02-04T14:19:07;0.30;;;0.30;;
13764;SDS011;6953;48.810;9.204;2024-02-04T14:21:32;0.40;;;0.40;;
13764;SDS011;6953;48.810;9.204;2024-02-04T14:23:57;0.20;;;0.20;;
13764;SDS011;6953;48.810;9.204;2024-02-04T14:26:23;0.40;;;0.40;;
13764;SDS011;6953;48.810;9.204;2024-02-04T14:28:48;0.30;;;0.30;;
13764;SDS011;6953;48.810;9.204;2024-02-04T14:31:13;0.40;;;0.40;;
13764;SDS011;6953;48.810;9.204;2024-02-04T14:33:39;0.30;;;0.30;;
13764;SDS011;6953;48.810;9.204;2024-02-04T14:36:05;0.30;;;0.30;;
13764;SDS011;6953;48.810;9.204;2024-02-04T14:38:32;0.30;;;0.30;;
13764;SDS011;6953;48.810;9.204;2024-02-04T14:40:57;0.30;;;0.30;;
13764;SDS011;6953;48.810;9.204;2024-02-04T14:43:23;0.20;;;0.20;;
13764;SDS011;6953;48.810;9.204;2024-02-04T14:45:49;0.30;;;0.30;;
13764;SDS011;6953;48.810;9.204;2024-02-04T14:48:15;0.30;;;0.30;;
13764;SDS011;6953;48.810;9.204;2024-02-04T14:50:40;0.28;;;0.28;;
13764;SDS011;6953;48.810;9.204;2024-02-04T14:53:05;0.40;;;0.40;;
13764;SDS011;6953;48.810;9.204;2024-02-04T14:55:31;0.35;;;0.35;;
13764;SDS011;6953;48.810;9.204;2024-02-04T14:57:57;0.30;;;0.30;;
13764;SDS011;6953;48.810;9.204;2024-02-04T15:00:22;0.30;;;0.30;;
13764;SDS011;6953;48.810;9.204;2024-02-04T15:02:51;0.40;;;0.40;;
13764;SDS011;6953;48.810;9.204;2024-02-04T15:05:17;0.32;;;0.32;;
13764;SDS011;6953;48.810;9.204;2024-02-04T15:07:43;0.40;;;0.40;;
13764;SDS011;6953;48.810;9.204;2024-02-04T15:10:08;0.40;;;0.40;;